Time;durP1;ratioP1;P1;durP2;ratioP2;P2;SDS_P1;SDS_P2;PMS_P1;PMS_P2;Temp;Humidity;BMP_temperature;BMP_pressure;BME280_temperature;BME280_humidity;BME280_pressure;Samples;Min_cycle;Max_cycle;Signal;HPM_P1;HPM_P2
2022/10/11 00:00:54;;;;;;;;;;;;;;;13.59;66.76;101828.50;5037826;28;20498;-91
2022/10/11 00:03:19;;;;;;;;;;;;;;;13.55;66.58;101830.66;5030964;28;20007;-92
2022/10/11 00:05:46;;;;;;;;;;;;;;;13.54;66.64;101826.28;5034663;28;20314;-92
2022/10/11 00:08:18;;;;;;;;;;;;;;;13.52;66.92;101823.72;5032215;28;19924;-91
2022/10/11 00:11:04;;;;;;;;;;;;;;;13.50;66.65;101827.56;5035238;28;19928;-90
2022/10/11 00:13:30;;;;;;;;;;;;;;;13.45;66.62;101817.22;5036560;28;19922;-91
2022/10/11 00:15:55;;;;;;;;;;;;;;;13.46;66.59;101820.75;5038517;28;20020;-92
2022/10/11 00:18:21;;;;;;;;;;;;;;;13.42;66.55;101814.00;5033025;28;20016;-92
2022/10/11 00:20:47;;;;;;;;;;;;;;;13.40;66.91;101815.97;5034449;28;19988;-90
2022/10/11 00:23:12;;;;;;;;;;;;;;;13.36;67.01;101815.41;5037296;28;19921;-91
2022/10/11 00:25:38;;;;;;;;;;;;;;;13.34;67.12;101813.88;5040838;28;19925;-91
2022/10/11 00:28:04;;;;;;;;;;;;;;;13.35;66.96;101805.63;5038142;28;19925;-90
2022/10/11 00:30:29;;;;;;;;;;;;;;;13.32;66.91;101805.06;5014869;28;19940;-90
2022/10/11 00:32:55;;;;;;;;;;;;;;;13.32;67.00;101800.50;5034822;28;20000;-90
2022/10/11 00:35:22;;;;;;;;;;;;;;;13.30;66.93;101803.38;5048319;28;20060;-90
2022/10/11 00:37:48;;;;;;;;;;;;;;;13.25;67.32;101799.38;5046825;28;20512;-92
2022/10/11 00:40:14;;;;;;;;;;;;;;;13.25;67.35;101793.97;5028228;28;19944;-91
2022/10/11 00:42:40;;;;;;;;;;;;;;;13.21;67.74;101798.84;5038145;28;20377;-91
2022/10/11 00:45:24;;;;;;;;;;;;;;;13.05;68.46;101796.78;5025724;28;19955;-92
2022/10/11 00:47:55;;;;;;;;;;;;;;;13.05;68.63;101793.25;5033107;28;19987;-91
2022/10/11 00:50:22;;;;;;;;;;;;;;;13.08;68.61;101793.78;5024343;28;20003;-92
2022/10/11 00:52:58;;;;;;;;;;;;;;;13.00;69.06;101791.00;5033216;28;19921;-91
2022/10/11 00:55:24;;;;;;;;;;;;;;;13.04;69.05;101794.22;5024863;28;19917;-92
2022/10/11 00:57:51;;;;;;;;;;;;;;;13.01;69.14;101797.25;5026878;28;19921;-91
2022/10/11 01:00:19;;;;;;;;;;;;;;;12.98;69.50;101794.84;5015536;28;19979;-91
2022/10/11 01:02:44;;;;;;;;;;;;;;;12.90;70.11;101790.22;5040958;28;20003;-91
2022/10/11 01:05:11;;;;;;;;;;;;;;;12.79;71.15;101791.22;5031986;28;19928;-92
2022/10/11 01:07:38;;;;;;;;;;;;;;;12.59;72.27;101793.13;5074721;28;19921;-89
2022/10/11 01:10:04;;;;;;;;;;;;;;;12.60;72.31;101783.22;5081470;28;19906;-89
2022/10/11 01:12:31;;;;;;;;;;;;;;;12.60;72.40;101780.50;5052894;28;19928;-90
2022/10/11 01:14:59;;;;;;;;;;;;;;;12.67;71.99;101773.53;5042582;28;19933;-91
2022/10/11 01:17:43;;;;;;;;;;;;;;;12.66;72.10;101764.56;5037390;28;19917;-91
2022/10/11 01:20:23;;;;;;;;;;;;;;;12.59;72.08;101771.53;5054261;28;20009;-89
2022/10/11 01:22:57;;;;;;;;;;;;;;;12.60;72.19;101756.25;5060217;28;19988;-91
2022/10/11 01:25:45;;;;;;;;;;;;;;;12.57;72.19;101751.13;5056444;28;19964;-91
2022/10/11 01:28:29;;;;;;;;;;;;;;;12.61;71.85;101755.22;5054973;28;20012;-92
2022/10/11 01:30:56;;;;;;;;;;;;;;;12.59;72.00;101759.91;5045732;28;19916;-91
2022/10/11 01:33:39;;;;;;;;;;;;;;;12.62;71.63;101756.94;5039825;28;19975;-90
2022/10/11 01:36:06;;;;;;;;;;;;;;;12.59;71.82;101759.91;5042723;28;19921;-91
2022/10/11 01:38:33;;;;;;;;;;;;;;;12.61;71.37;101752.53;5012858;28;20336;-91
2022/10/11 01:41:01;;;;;;;;;;;;;;;12.61;71.28;101755.22;5038431;28;20389;-91
2022/10/11 01:43:27;;;;;;;;;;;;;;;12.63;71.27;101755.94;5014213;28;19932;-91
2022/10/11 01:45:53;;;;;;;;;;;;;;;12.59;71.48;101759.91;5045613;28;19971;-92
2022/10/11 01:48:20;;;;;;;;;;;;;;;12.63;71.54;101753.22;5015611;28;19925;-90
2022/10/11 01:50:48;;;;;;;;;;;;;;;12.68;71.19;101742.84;5037794;28;19973;-91
2022/10/11 01:53:15;;;;;;;;;;;;;;;12.70;70.71;101751.63;5028885;28;20092;-90
2022/10/11 01:55:49;;;;;;;;;;;;;;;12.71;70.51;101747.94;5030066;28;19921;-92
2022/10/11 01:58:21;;;;;;;;;;;;;;;12.72;70.58;101749.66;5033129;28;20387;-91
2022/10/11 02:00:56;;;;;;;;;;;;;;;12.63;70.91;101745.13;5039211;28;19932;-92
2022/10/11 02:03:26;;;;;;;;;;;;;;;12.68;70.79;101745.53;5019089;28;19925;-92
2022/10/11 02:06:08;;;;;;;;;;;;;;;12.66;70.97;101750.22;5030843;28;20324;-91
2022/10/11 02:08:38;;;;;;;;;;;;;;;12.51;71.69;101755.25;5007662;28;20523;-91
2022/10/11 02:11:04;;;;;;;;;;;;;;;12.49;71.75;101759.09;5036860;28;19987;-91
2022/10/11 02:13:53;;;;;;;;;;;;;;;12.36;72.46;101756.72;5032506;28;20282;-89
2022/10/11 02:16:24;;;;;;;;;;;;;;;12.23;72.84;101749.78;5025887;28;20349;-90
2022/10/11 02:18:50;;;;;;;;;;;;;;;12.44;71.71;101752.28;5030014;28;19928;-90
2022/10/11 02:21:18;;;;;;;;;;;;;;;12.37;71.95;101748.50;5029976;28;19939;-91
2022/10/11 02:23:58;;;;;;;;;;;;;;;12.32;72.42;101753.47;5025689;28;20057;-90
2022/10/11 02:26:24;;;;;;;;;;;;;;;12.31;72.16;101751.75;5027665;28;20416;-91
2022/10/11 02:28:50;;;;;;;;;;;;;;;12.31;71.99;101749.06;5003694;28;19921;-90
2022/10/11 02:31:16;;;;;;;;;;;;;;;12.27;72.07;101753.06;5059987;28;19979;-90
2022/10/11 02:33:44;;;;;;;;;;;;;;;12.22;72.24;101747.22;5028327;28;19920;-92
2022/10/11 02:36:16;;;;;;;;;;;;;;;12.22;72.15;101745.41;5033749;28;19929;-92
2022/10/11 02:38:47;;;;;;;;;;;;;;;12.16;71.75;101735.19;5027498;28;19921;-91
2022/10/11 02:41:46;;;;;;;;;;;;;;;12.11;72.18;101748.25;5014420;28;19935;-91
2022/10/11 02:44:12;;;;;;;;;;;;;;;12.13;72.21;101746.28;5026293;28;19921;-93
2022/10/11 02:46:38;;;;;;;;;;;;;;;12.14;72.10;101742.56;5013107;28;20316;-92
2022/10/11 02:49:04;;;;;;;;;;;;;;;12.19;71.92;101742.97;5030882;28;20098;-92
2022/10/11 02:51:30;;;;;;;;;;;;;;;12.19;71.94;101742.13;5038112;28;19921;-91
2022/10/11 02:53:56;;;;;;;;;;;;;;;12.17;71.83;101744.13;5056503;28;20407;-89
2022/10/11 02:56:22;;;;;;;;;;;;;;;12.17;71.81;101739.56;5052874;28;19929;-91
2022/10/11 02:58:49;;;;;;;;;;;;;;;12.12;71.62;101730.25;5043410;28;19999;-90
2022/10/11 03:01:15;;;;;;;;;;;;;;;12.17;71.72;101736.03;5032406;28;19945;-91
2022/10/11 03:03:42;;;;;;;;;;;;;;;12.16;71.88;101735.19;5025792;28;19961;-92
2022/10/11 03:06:07;;;;;;;;;;;;;;;12.17;71.83;101731.50;5027718;28;20342;-91
2022/10/11 03:08:34;;;;;;;;;;;;;;;12.20;71.56;101733.91;5026428;28;19929;-92
2022/10/11 03:11:03;;;;;;;;;;;;;;;12.18;71.58;101741.31;5037314;28;20022;-92
2022/10/11 03:13:29;;;;;;;;;;;;;;;12.13;71.77;101743.59;5051115;28;19964;-92
2022/10/11 03:15:56;;;;;;;;;;;;;;;12.18;71.92;101733.22;5029057;28;19961;-92
2022/10/11 03:18:23;;;;;;;;;;;;;;;12.17;71.57;101727.94;5022578;28;19925;-92
2022/10/11 03:20:51;;;;;;;;;;;;;;;12.18;71.59;101737.75;5031360;28;19967;-90
2022/10/11 03:23:18;;;;;;;;;;;;;;;12.18;71.50;101727.81;5028369;28;20009;-90
2022/10/11 03:25:44;;;;;;;;;;;;;;;12.19;71.57;101732.19;5037217;28;19982;-91
2022/10/11 03:28:09;;;;;;;;;;;;;;;12.19;71.35;101731.34;5027189;28;19929;-90
2022/10/11 03:30:37;;;;;;;;;;;;;;;12.16;71.32;101726.25;5039765;28;19925;-89
2022/10/11 03:33:03;;;;;;;;;;;;;;;12.19;71.37;101736.75;5033670;28;20409;-89
2022/10/11 03:35:30;;;;;;;;;;;;;;;12.18;71.48;101721.59;5031689;28;19924;-89
2022/10/11 03:37:56;;;;;;;;;;;;;;;12.12;71.71;101719.47;5025345;28;19932;-91
2022/10/11 03:40:21;;;;;;;;;;;;;;;12.19;71.68;101720.56;5038064;28;20008;-89
2022/10/11 03:42:47;;;;;;;;;;;;;;;12.16;71.48;101721.72;5041663;28;19932;-89
2022/10/11 03:45:14;;;;;;;;;;;;;;;12.17;71.60;101712.63;5040211;28;20432;-90
2022/10/11 03:47:40;;;;;;;;;;;;;;;12.16;71.51;101721.72;5033327;28;19996;-90
2022/10/11 03:50:06;;;;;;;;;;;;;;;12.16;71.58;101718.19;5039579;28;19944;-88
2022/10/11 03:52:38;;;;;;;;;;;;;;;12.15;71.68;101713.75;5026600;28;20459;-90
2022/10/11 03:55:06;;;;;;;;;;;;;;;12.14;71.63;101709.38;5025048;28;19921;-90
2022/10/11 03:57:31;;;;;;;;;;;;;;;12.03;72.08;101700.47;5031604;28;19921;-92
2022/10/11 03:59:57;;;;;;;;;;;;;;;12.11;71.93;101712.38;5016615;28;20451;-90
2022/10/11 04:02:22;;;;;;;;;;;;;;;12.14;72.02;101704.00;5034203;28;19975;-92
2022/10/11 04:04:47;;;;;;;;;;;;;;;12.13;72.07;101716.63;5026488;28;19929;-92
2022/10/11 04:07:13;;;;;;;;;;;;;;;12.15;72.08;101711.06;5037696;28;19987;-93
2022/10/11 04:09:39;;;;;;;;;;;;;;;12.15;72.19;101708.38;5058430;28;20081;-89
2022/10/11 04:12:05;;;;;;;;;;;;;;;12.18;71.80;101708.09;5017264;28;19968;-92
2022/10/11 04:14:31;;;;;;;;;;;;;;;12.18;71.82;101708.09;5036201;28;19924;-90
2022/10/11 04:16:59;;;;;;;;;;;;;;;12.23;71.61;101706.66;5040402;28;20268;-91
2022/10/11 04:19:27;;;;;;;;;;;;;;;12.27;71.59;101707.22;5012353;28;19959;-91
2022/10/11 04:21:54;;;;;;;;;;;;;;;12.30;71.47;101708.78;5029357;28;19987;-91
2022/10/11 04:24:19;;;;;;;;;;;;;;;12.33;71.29;101703.94;5025241;28;20093;-91
2022/10/11 04:26:45;;;;;;;;;;;;;;;12.35;71.41;101710.03;5036923;28;20420;-89
2022/10/11 04:29:10;;;;;;;;;;;;;;;12.29;71.74;101710.63;5041641;28;19921;-90
2022/10/11 04:31:36;;;;;;;;;;;;;;;12.35;71.49;101710.03;5035865;28;19923;-90
2022/10/11 04:34:02;;;;;;;;;;;;;;;12.38;71.32;101708.88;5035224;28;19925;-88
2022/10/11 04:36:31;;;;;;;;;;;;;;;12.38;71.15;101714.28;5029842;28;19928;-91
2022/10/11 04:38:57;;;;;;;;;;;;;;;12.41;71.15;101712.16;5039821;28;19924;-90
2022/10/11 04:41:24;;;;;;;;;;;;;;;12.39;71.32;101706.03;5034769;28;19986;-91
2022/10/11 04:43:55;;;;;;;;;;;;;;;12.49;71.07;101713.25;5040314;28;19939;-90
2022/10/11 04:46:23;;;;;;;;;;;;;;;12.56;70.60;101712.50;5055255;28;19939;-85
2022/10/11 04:48:49;;;;;;;;;;;;;;;12.58;70.90;101720.47;5031173;28;19926;-87
2022/10/11 04:51:14;;;;;;;;;;;;;;;12.68;70.62;101718.56;5041681;28;19975;-90
2022/10/11 04:53:39;;;;;;;;;;;;;;;12.74;70.36;101725.22;5028751;28;19966;-88
2022/10/11 04:56:06;;;;;;;;;;;;;;;12.79;70.50;101728.31;5039314;28;19939;-89
2022/10/11 04:58:32;;;;;;;;;;;;;;;12.92;70.26;101727.97;5014569;28;19921;-90
2022/10/11 05:00:58;;;;;;;;;;;;;;;12.91;70.46;101732.50;5030610;28;20447;-90
2022/10/11 05:03:25;;;;;;;;;;;;;;;12.93;70.38;101735.91;5026210;28;19928;-88
2022/10/11 05:05:50;;;;;;;;;;;;;;;13.11;69.63;101727.88;5036647;28;19921;-89
2022/10/11 05:08:16;;;;;;;;;;;;;;;13.27;69.35;101728.06;5026301;28;20381;-92
2022/10/11 05:10:42;;;;;;;;;;;;;;;13.42;68.89;101724.84;5038870;28;19929;-92
2022/10/11 05:13:08;;;;;;;;;;;;;;;13.54;68.49;101729.00;5033978;28;20250;-94
2022/10/11 05:15:33;;;;;;;;;;;;;;;13.69;68.39;101732.84;5025333;28;20074;-88
2022/10/11 05:17:59;;;;;;;;;;;;;;;13.84;67.71;101730.47;5027175;28;19937;-91
2022/10/11 05:20:27;;;;;;;;;;;;;;;13.92;67.61;101733.22;5033349;28;19925;-87
2022/10/11 05:22:53;;;;;;;;;;;;;;;14.02;67.29;101732.28;5028177;28;19928;-92
2022/10/11 05:25:18;;;;;;;;;;;;;;;14.20;66.46;101732.25;5010398;28;20333;-89
2022/10/11 05:27:44;;;;;;;;;;;;;;;14.41;66.12;101737.28;5033191;28;19990;-90
2022/10/11 05:30:10;;;;;;;;;;;;;;;14.50;65.97;101733.63;5032958;28;19921;-87
2022/10/11 05:32:35;;;;;;;;;;;;;;;14.55;65.50;101732.16;5024294;28;19917;-89
2022/10/11 05:35:03;;;;;;;;;;;;;;;14.70;64.55;101737.81;5030308;28;20067;-92
2022/10/11 05:37:32;;;;;;;;;;;;;;;14.98;63.67;101745.69;5031153;28;19925;-89
2022/10/11 05:40:01;;;;;;;;;;;;;;;15.12;63.75;101736.09;5034118;28;19952;-95
2022/10/11 05:42:27;;;;;;;;;;;;;;;15.97;61.18;101744.06;5055977;28;19984;-90
2022/10/11 05:44:53;;;;;;;;;;;;;;;17.53;57.03;101738.94;5045392;28;19920;-88
2022/10/11 05:47:21;;;;;;;;;;;;;;;18.65;54.24;101719.22;5047503;28;19988;-88
2022/10/11 05:49:47;;;;;;;;;;;;;;;19.75;50.76;101734.59;5045291;28;19921;-90
2022/10/11 05:52:12;;;;;;;;;;;;;;;20.49;48.29;101736.00;5038629;28;19979;-90
2022/10/11 05:54:38;;;;;;;;;;;;;;;20.91;46.59;101734.16;5033818;28;19921;-89
2022/10/11 05:57:05;;;;;;;;;;;;;;;21.32;45.82;101736.00;5027822;28;19990;-90
2022/10/11 05:59:31;;;;;;;;;;;;;;;21.89;44.47;101735.50;5033748;28;19962;-92
2022/10/11 06:01:58;;;;;;;;;;;;;;;22.42;43.33;101736.53;5040249;28;21699;-91
2022/10/11 06:04:24;;;;;;;;;;;;;;;22.89;41.55;101737.25;5061081;28;20321;-93
2022/10/11 06:06:51;;;;;;;;;;;;;;;23.33;40.72;101736.44;5032650;28;19925;-91
2022/10/11 06:09:17;;;;;;;;;;;;;;;23.50;39.43;101733.16;5032643;28;19992;-87
2022/10/11 06:11:44;;;;;;;;;;;;;;;23.77;38.96;101740.19;5035861;28;19921;-90
2022/10/11 06:14:10;;;;;;;;;;;;;;;23.55;39.00;101741.56;5035048;28;19953;-94
2022/10/11 06:19:39;;;;;;;;;;;;;;;23.44;40.21;101737.66;5039691;28;19925;-90
2022/10/11 06:22:06;;;;;;;;;;;;;;;23.62;39.63;101742.38;5048381;28;19925;-88
2022/10/11 06:24:32;;;;;;;;;;;;;;;23.35;39.24;101731.56;5033068;28;20359;-90
2022/10/11 06:26:57;;;;;;;;;;;;;;;23.42;39.26;101736.19;5013628;28;19925;-87
2022/10/11 06:29:23;;;;;;;;;;;;;;;23.38;38.55;101735.78;5020463;28;19925;-88
2022/10/11 06:31:55;;;;;;;;;;;;;;;23.04;39.99;101740.59;5030741;28;19926;-90
2022/10/11 06:34:20;;;;;;;;;;;;;;;23.33;39.74;101738.34;5025772;28;19921;-90
2022/10/11 06:36:46;;;;;;;;;;;;;;;23.50;38.61;101735.91;5000368;28;20424;-87
2022/10/11 06:39:11;;;;;;;;;;;;;;;23.73;37.94;101738.91;5005189;28;21753;-90
2022/10/11 06:41:36;;;;;;;;;;;;;;;23.88;37.77;101730.41;5001580;28;19921;-89
2022/10/11 06:44:04;;;;;;;;;;;;;;;24.20;37.55;101739.41;5026125;28;19933;-86
2022/10/11 06:46:29;;;;;;;;;;;;;;;23.57;37.12;101739.44;5025425;28;19990;-89
2022/10/11 06:48:56;;;;;;;;;;;;;;;23.50;37.09;101744.13;5013580;28;19921;-90
2022/10/11 06:51:21;;;;;;;;;;;;;;;23.40;37.09;101744.63;5023152;28;19947;-91
2022/10/11 06:53:56;;;;;;;;;;;;;;;23.68;36.71;101746.13;5030180;28;19925;-91
2022/10/11 06:56:22;;;;;;;;;;;;;;;23.83;36.27;101754.09;5026245;28;19983;-91
2022/10/11 06:58:52;;;;;;;;;;;;;;;24.05;36.03;101749.06;5008342;28;19987;-89
2022/10/11 07:01:20;;;;;;;;;;;;;;;24.26;35.67;101758.81;5007841;28;19936;-90
2022/10/11 07:03:46;;;;;;;;;;;;;;;23.57;36.36;101755.91;5016754;28;20042;-90
2022/10/11 07:06:12;;;;;;;;;;;;;;;23.80;35.74;101753.47;5007384;28;19957;-92
2022/10/11 07:08:39;;;;;;;;;;;;;;;23.30;36.15;101750.59;5005976;28;19968;-91
2022/10/11 07:11:12;;;;;;;;;;;;;;;24.31;34.70;101757.06;5025831;28;19917;-91
2022/10/11 07:13:42;;;;;;;;;;;;;;;23.88;35.18;101752.38;5010603;28;19921;-91
2022/10/11 07:16:09;;;;;;;;;;;;;;;24.17;34.08;101756.34;5010042;28;20317;-90
2022/10/11 07:18:40;;;;;;;;;;;;;;;24.31;34.12;101757.06;5023483;28;19983;-90
2022/10/11 07:21:06;;;;;;;;;;;;;;;24.85;33.80;101751.88;5021235;28;20399;-89
2022/10/11 07:23:32;;;;;;;;;;;;;;;25.06;32.41;101753.31;5029200;28;19943;-89
2022/10/11 07:25:58;;;;;;;;;;;;;;;25.34;32.15;101747.25;5036435;28;20334;-88
2022/10/11 07:28:23;;;;;;;;;;;;;;;25.62;31.64;101754.88;5030313;28;19935;-89
2022/10/11 07:30:49;;;;;;;;;;;;;;;26.02;31.16;101751.53;5033877;28;19968;-91
2022/10/11 07:33:22;;;;;;;;;;;;;;;26.88;30.09;101751.03;5055138;28;19936;-88
2022/10/11 07:35:47;;;;;;;;;;;;;;;28.36;27.99;101753.75;5045122;28;20373;-89
2022/10/11 07:38:13;;;;;;;;;;;;;;;28.14;27.34;101750.06;5050254;28;19924;-89
2022/10/11 07:40:40;;;;;;;;;;;;;;;29.16;26.54;101748.75;5043549;28;19932;-90
2022/10/11 07:43:05;;;;;;;;;;;;;;;30.09;25.09;101758.81;5050661;28;20355;-89
2022/10/11 07:45:30;;;;;;;;;;;;;;;30.03;24.84;101754.34;5034791;28;19990;-88
2022/10/11 07:47:56;;;;;;;;;;;;;;;30.27;24.73;101754.81;5054270;28;19943;-90
2022/10/11 07:50:21;;;;;;;;;;;;;;;31.09;23.62;101760.81;5044950;28;20391;-88
2022/10/11 07:52:47;;;;;;;;;;;;;;;30.62;23.91;101761.69;5036022;28;19928;-87
2022/10/11 07:55:12;;;;;;;;;;;;;;;31.73;22.78;101762.38;5046256;28;19924;-89
2022/10/11 07:57:37;;;;;;;;;;;;;;;32.34;21.53;101762.38;5053042;28;19974;-88
2022/10/11 08:00:03;;;;;;;;;;;;;;;32.50;21.43;101749.28;5049821;28;19927;-88
2022/10/11 08:02:28;;;;;;;;;;;;;;;32.01;22.14;101755.47;5054000;28;19935;-88
2022/10/11 08:04:54;;;;;;;;;;;;;;;31.94;21.81;101752.94;5026620;28;20253;-88
2022/10/11 08:07:19;;;;;;;;;;;;;;;32.19;21.13;101756.81;5052883;28;20336;-87
2022/10/11 08:09:45;;;;;;;;;;;;;;;33.30;20.51;101756.75;5043855;28;19921;-88
2022/10/11 08:12:10;;;;;;;;;;;;;;;32.77;20.50;101757.25;5037236;28;19960;-88
2022/10/11 08:14:35;;;;;;;;;;;;;;;33.34;20.37;101755.06;5053661;28;20361;-89
2022/10/11 08:17:01;;;;;;;;;;;;;;;32.33;21.00;101757.91;5053518;28;20794;-88
2022/10/11 08:19:30;;;;;;;;;;;;;;;32.43;20.86;101753.44;5020321;28;19925;-88
2022/10/11 08:21:55;;;;;;;;;;;;;;;32.57;21.22;101751.78;5026251;28;19921;-88
2022/10/11 08:24:23;;;;;;;;;;;;;;;34.16;20.06;101748.03;5051827;28;19923;-88
2022/10/11 08:26:50;;;;;;;;;;;;;;;35.32;18.46;101751.72;5027360;28;19936;-88
2022/10/11 08:29:17;;;;;;;;;;;;;;;36.35;16.87;101746.09;5048680;28;19967;-89
2022/10/11 08:31:43;;;;;;;;;;;;;;;36.94;16.53;101751.91;5035592;28;20320;-89
2022/10/11 08:34:09;;;;;;;;;;;;;;;36.81;16.58;101742.38;5035587;28;19928;-89
2022/10/11 08:36:34;;;;;;;;;;;;;;;37.39;16.10;101736.03;5035930;28;19921;-88
2022/10/11 08:38:59;;;;;;;;;;;;;;;36.80;16.56;101734.28;5037650;28;19963;-87
2022/10/11 08:41:28;;;;;;;;;;;;;;;37.27;16.12;101741.34;5056984;28;19920;-89
2022/10/11 08:44:18;;;;;;;;;;;;;;;37.05;16.52;101733.72;5048114;28;19921;-88
2022/10/11 08:46:46;;;;;;;;;;;;;;;36.01;17.56;101727.66;5053238;28;19959;-90
2022/10/11 08:49:11;;;;;;;;;;;;;;;34.53;18.18;101738.97;5028564;28;19921;-86
2022/10/11 08:51:47;;;;;;;;;;;;;;;34.23;18.50;101728.97;5047733;28;19982;-88
2022/10/11 08:54:26;;;;;;;;;;;;;;;35.30;17.80;101724.06;5017520;28;19946;-88
2022/10/11 08:56:52;;;;;;;;;;;;;;;35.38;16.74;101740.16;5051668;28;19920;-87
2022/10/11 08:59:29;;;;;;;;;;;;;;;34.05;18.08;101725.78;5017008;28;20009;-90
2022/10/11 09:02:00;;;;;;;;;;;;;;;36.10;17.02;101723.03;5057886;28;19980;-88
2022/10/11 09:04:26;;;;;;;;;;;;;;;36.54;15.56;101718.81;5042170;28;19963;-91
2022/10/11 09:07:17;;;;;;;;;;;;;;;36.53;15.67;101728.34;5039328;28;19928;-88
2022/10/11 09:10:03;;;;;;;;;;;;;;;37.92;14.90;101719.59;5042237;28;19984;-87
2022/10/11 09:12:54;;;;;;;;;;;;;;;37.76;14.87;101716.34;5015616;28;19967;-87
2022/10/11 09:15:29;;;;;;;;;;;;;;;37.73;14.45;101723.44;5038013;28;19928;-89
2022/10/11 09:18:05;;;;;;;;;;;;;;;36.45;15.41;101728.25;5031718;28;20028;-90
2022/10/11 09:20:46;;;;;;;;;;;;;;;37.18;15.17;101716.06;5004519;28;20056;-87
2022/10/11 09:23:14;;;;;;;;;;;;;;;35.24;17.03;101722.47;5018619;28;19985;-88
2022/10/11 09:25:46;;;;;;;;;;;;;;;35.88;16.60;101715.28;5027614;28;19971;-87
2022/10/11 09:28:18;;;;;;;;;;;;;;;35.02;17.09;101721.06;5013951;28;20020;-87
2022/10/11 09:30:49;;;;;;;;;;;;;;;32.27;20.17;101717.31;5013115;28;20011;-88
2022/10/11 09:33:32;;;;;;;;;;;;;;;33.99;18.53;101710.22;5030540;28;19921;-88
2022/10/11 09:35:58;;;;;;;;;;;;;;;31.05;21.43;101716.09;5026276;28;19917;-88
2022/10/11 09:38:30;;;;;;;;;;;;;;;32.92;19.57;101719.31;5002903;28;20016;-88
2022/10/11 09:41:14;;;;;;;;;;;;;;;33.10;19.44;101706.72;5032052;28;19918;-88
2022/10/11 09:43:39;;;;;;;;;;;;;;;33.98;18.79;101710.53;5030787;28;19929;-88
2022/10/11 09:46:14;;;;;;;;;;;;;;;33.34;18.84;101713.25;5001255;28;20229;-87
2022/10/11 09:48:39;;;;;;;;;;;;;;;32.10;20.18;101706.50;5013673;28;20373;-88
2022/10/11 09:51:27;;;;;;;;;;;;;;;31.44;21.13;101698.16;4997733;28;19922;-90
2022/10/11 09:53:55;;;;;;;;;;;;;;;31.40;20.91;101708.09;5025113;28;20379;-89
2022/10/11 09:56:21;;;;;;;;;;;;;;;31.56;20.87;101709.81;5028499;28;19927;-88
2022/10/11 09:58:49;;;;;;;;;;;;;;;32.64;19.83;101702.19;5026494;28;20379;-90
2022/10/11 10:01:23;;;;;;;;;;;;;;;31.71;20.65;101701.50;5036527;28;19980;-89
2022/10/11 10:04:10;;;;;;;;;;;;;;;30.42;22.40;101702.22;5013949;28;19932;-90
2022/10/11 10:06:38;;;;;;;;;;;;;;;32.01;20.90;101705.41;5050690;28;20020;-89
2022/10/11 10:09:23;;;;;;;;;;;;;;;32.01;20.52;101698.97;5014504;28;19925;-90
2022/10/11 10:11:49;;;;;;;;;;;;;;;30.80;21.55;101700.16;5046689;28;19995;-91
2022/10/11 10:14:41;;;;;;;;;;;;;;;31.18;21.49;101683.34;5043002;28;19921;-89
2022/10/11 10:17:13;;;;;;;;;;;;;;;31.42;21.31;101694.81;5029017;28;20364;-90
2022/10/11 10:19:40;;;;;;;;;;;;;;;31.58;21.07;101692.88;5009604;28;20815;-89
2022/10/11 10:22:05;;;;;;;;;;;;;;;31.66;20.78;101693.16;5040679;28;19921;-89
2022/10/11 10:24:38;;;;;;;;;;;;;;;31.72;20.88;101685.63;5030105;28;19927;-90
2022/10/11 10:27:06;;;;;;;;;;;;;;;31.82;20.57;101682.00;5033100;28;20389;-91
2022/10/11 10:29:32;;;;;;;;;;;;;;;31.02;21.59;101677.75;5048718;28;19921;-88
2022/10/11 10:31:58;;;;;;;;;;;;;;;31.67;21.11;101677.31;5018763;28;19926;-89
2022/10/11 10:34:27;;;;;;;;;;;;;;;32.43;20.80;101681.94;5029442;28;19925;-90
2022/10/11 10:36:55;;;;;;;;;;;;;;;32.70;19.63;101677.94;5026307;28;20004;-92
2022/10/11 10:39:25;;;;;;;;;;;;;;;33.11;19.42;101683.34;5025566;28;20297;-92
2022/10/11 10:41:53;;;;;;;;;;;;;;;33.14;19.50;101678.00;5054583;28;19917;-92
2022/10/11 10:44:18;;;;;;;;;;;;;;;34.41;18.14;101682.75;5042933;28;20330;-91
2022/10/11 10:46:53;;;;;;;;;;;;;;;35.24;17.46;101673.00;5052940;28;19920;-90
2022/10/11 10:49:23;;;;;;;;;;;;;;;36.07;16.94;101678.00;5047729;28;19921;-91
2022/10/11 10:52:07;;;;;;;;;;;;;;;34.80;17.48;101676.97;5052632;28;19921;-94
2022/10/11 10:54:32;;;;;;;;;;;;;;;36.32;16.66;101668.31;5033832;28;19940;-89
2022/10/11 10:56:59;;;;;;;;;;;;;;;35.47;16.87;101665.63;5052607;28;19921;-93
2022/10/11 10:59:44;;;;;;;;;;;;;;;36.16;16.50;101665.00;5030912;28;19929;-90
2022/10/11 11:02:23;;;;;;;;;;;;;;;37.05;15.59;101663.66;5051229;28;19924;-88
2022/10/11 11:05:15;;;;;;;;;;;;;;;37.11;15.43;101662.44;5029494;28;19925;-90
2022/10/11 11:07:42;;;;;;;;;;;;;;;34.97;17.15;101656.88;5023757;28;19928;-91
2022/10/11 11:10:17;;;;;;;;;;;;;;;32.53;19.90;101654.09;5039694;28;19928;-90
2022/10/11 11:13:02;;;;;;;;;;;;;;;33.60;19.20;101660.13;5021455;28;19913;-91
2022/10/11 11:15:36;;;;;;;;;;;;;;;32.42;20.05;101649.63;5065031;28;19928;-90
2022/10/11 11:18:16;;;;;;;;;;;;;;;31.93;20.85;101650.31;5040937;28;20066;-93
2022/10/11 11:20:42;;;;;;;;;;;;;;;32.71;19.96;101647.03;5008351;28;20294;-93
2022/10/11 11:23:30;;;;;;;;;;;;;;;32.97;19.78;101633.81;5031513;28;20008;-92
2022/10/11 11:25:56;;;;;;;;;;;;;;;31.28;21.58;101637.00;5009050;28;19917;-92
2022/10/11 11:28:36;;;;;;;;;;;;;;;30.48;22.54;101631.78;5031361;28;19987;-91
2022/10/11 11:31:16;;;;;;;;;;;;;;;29.97;23.48;101634.28;5023074;28;20334;-91
2022/10/11 11:33:49;;;;;;;;;;;;;;;29.50;23.62;101629.47;5028119;28;20376;-92
2022/10/11 11:36:17;;;;;;;;;;;;;;;29.50;24.04;101640.56;5013468;28;20008;-91
2022/10/11 11:39:12;;;;;;;;;;;;;;;27.54;26.38;101632.78;5010523;28;19940;-89
2022/10/11 11:41:40;;;;;;;;;;;;;;;27.97;26.51;101634.84;5006591;28;19917;-90
2022/10/11 11:44:09;;;;;;;;;;;;;;;26.91;27.63;101637.41;5014435;28;20054;-88
2022/10/11 11:46:40;;;;;;;;;;;;;;;26.27;29.14;101635.53;5044323;28;19917;-88
2022/10/11 11:49:22;;;;;;;;;;;;;;;26.18;29.09;101634.22;5025578;28;19992;-89
2022/10/11 11:51:47;;;;;;;;;;;;;;;25.63;29.91;101642.81;5021593;28;19928;-89
2022/10/11 11:54:26;;;;;;;;;;;;;;;23.71;33.67;101635.88;5011886;28;19926;-88
2022/10/11 11:57:04;;;;;;;;;;;;;;;23.95;33.45;101643.31;5029128;28;19924;-89
2022/10/11 11:59:46;;;;;;;;;;;;;;;23.81;33.68;101630.72;5033082;28;19988;-88
2022/10/11 12:02:20;;;;;;;;;;;;;;;23.06;35.13;101637.00;5017212;28;19917;-87
2022/10/11 12:04:47;;;;;;;;;;;;;;;23.09;35.43;101639.31;5007097;28;20467;-92
2022/10/11 12:07:14;;;;;;;;;;;;;;;23.34;35.34;101644.84;5030610;28;20411;-90
2022/10/11 12:09:42;;;;;;;;;;;;;;;23.20;35.08;101645.97;5009832;28;19925;-92
2022/10/11 12:12:08;;;;;;;;;;;;;;;23.13;35.63;101648.78;4996169;28;19925;-90
2022/10/11 12:14:35;;;;;;;;;;;;;;;22.84;36.04;101641.94;4995648;28;20317;-91
2022/10/11 12:17:05;;;;;;;;;;;;;;;22.46;36.87;101639.16;5035095;28;20000;-91
2022/10/11 12:19:31;;;;;;;;;;;;;;;22.16;37.69;101630.56;5046438;28;19909;-91
2022/10/11 12:22:19;;;;;;;;;;;;;;;21.91;37.76;101642.19;5032214;28;19932;-93
2022/10/11 12:24:55;;;;;;;;;;;;;;;21.69;38.33;101633.38;5034303;28;19917;-91
2022/10/11 12:27:49;;;;;;;;;;;;;;;21.47;38.66;101635.47;5031311;28;19905;-93
2022/10/11 12:30:39;;;;;;;;;;;;;;;21.16;39.73;101634.13;5049951;28;19928;-91
2022/10/11 12:33:42;;;;;;;;;;;;;;;21.43;38.55;101646.00;5036763;28;19921;-93
2022/10/11 12:36:36;;;;;;;;;;;;;;;21.06;39.70;101639.16;5024201;28;19944;-94
2022/10/11 12:39:21;;;;;;;;;;;;;;;20.90;39.95;101639.53;5038836;28;19928;-93
2022/10/11 12:41:54;;;;;;;;;;;;;;;20.66;40.89;101639.03;5038058;28;20027;-94
2022/10/11 12:44:31;;;;;;;;;;;;;;;20.45;41.42;101631.78;5040069;28;19925;-90
2022/10/11 12:47:22;;;;;;;;;;;;;;;20.54;41.70;101629.72;5108006;22;19921;31
2022/10/11 12:49:54;;;;;;;;;;;;;;;20.25;42.55;101626.19;5019277;28;20287;-92
2022/10/11 12:52:21;;;;;;;;;;;;;;;20.21;43.06;101633.13;5001093;28;19935;-91